sensor_id;sensor_type;location;lat;lon;timestamp;P1;durP1;ratioP1;P2;durP2;ratioP2
67508;SDS011;54354;44.724;11.284;2023-11-19T00:00:20;16.23;;;8.65;;
67508;SDS011;54354;44.724;11.284;2023-11-19T00:02:45;16.23;;;9.55;;
67508;SDS011;54354;44.724;11.284;2023-11-19T00:05:12;18.65;;;9.20;;
67508;SDS011;54354;44.724;11.284;2023-11-19T00:07:39;13.60;;;8.75;;
67508;SDS011;54354;44.724;11.284;2023-11-19T00:10:08;20.35;;;10.80;;
67508;SDS011;54354;44.724;11.284;2023-11-19T00:12:36;21.27;;;10.52;;
67508;SDS011;54354;44.724;11.284;2023-11-19T00:15:03;17.55;;;9.73;;
67508;SDS011;54354;44.724;11.284;2023-11-19T00:17:28;15.10;;;9.32;;
67508;SDS011;54354;44.724;11.284;2023-11-19T00:19:54;15.80;;;9.73;;
67508;SDS011;54354;44.724;11.284;2023-11-19T00:22:19;19.00;;;9.15;;
67508;SDS011;54354;44.724;11.284;2023-11-19T00:24:46;17.42;;;8.68;;
67508;SDS011;54354;44.724;11.284;2023-11-19T00:27:12;11.65;;;7.75;;
67508;SDS011;54354;44.724;11.284;2023-11-19T00:29:37;15.82;;;8.52;;
67508;SDS011;54354;44.724;11.284;2023-11-19T00:32:03;15.50;;;8.48;;
67508;SDS011;54354;44.724;11.284;2023-11-19T00:34:30;16.17;;;8.50;;
67508;SDS011;54354;44.724;11.284;2023-11-19T00:36:56;12.10;;;8.00;;
67508;SDS011;54354;44.724;11.284;2023-11-19T00:39:21;16.40;;;8.20;;
67508;SDS011;54354;44.724;11.284;2023-11-19T00:41:47;14.20;;;8.95;;
67508;SDS011;54354;44.724;11.284;2023-11-19T00:44:13;12.38;;;7.70;;
67508;SDS011;54354;44.724;11.284;2023-11-19T00:46:39;14.55;;;8.32;;
67508;SDS011;54354;44.724;11.284;2023-11-19T00:49:05;12.70;;;7.93;;
67508;SDS011;54354;44.724;11.284;2023-11-19T00:51:30;15.10;;;8.30;;
67508;SDS011;54354;44.724;11.284;2023-11-19T00:53:57;14.50;;;8.00;;
67508;SDS011;54354;44.724;11.284;2023-11-19T00:56:23;14.18;;;8.70;;
67508;SDS011;54354;44.724;11.284;2023-11-19T00:58:49;13.90;;;7.25;;
67508;SDS011;54354;44.724;11.284;2023-11-19T01:01:14;10.05;;;7.60;;
67508;SDS011;54354;44.724;11.284;2023-11-19T01:03:40;13.10;;;7.18;;
67508;SDS011;54354;44.724;11.284;2023-11-19T01:06:05;13.68;;;8.32;;
67508;SDS011;54354;44.724;11.284;2023-11-19T01:08:31;11.27;;;7.63;;
67508;SDS011;54354;44.724;11.284;2023-11-19T01:10:57;14.27;;;7.75;;
67508;SDS011;54354;44.724;11.284;2023-11-19T01:13:22;15.32;;;8.10;;
67508;SDS011;54354;44.724;11.284;2023-11-19T01:15:48;12.68;;;7.85;;
67508;SDS011;54354;44.724;11.284;2023-11-19T01:18:14;13.05;;;7.72;;
67508;SDS011;54354;44.724;11.284;2023-11-19T01:20:40;13.65;;;8.15;;
67508;SDS011;54354;44.724;11.284;2023-11-19T01:23:05;11.77;;;8.20;;
67508;SDS011;54354;44.724;11.284;2023-11-19T01:25:31;11.43;;;7.63;;
67508;SDS011;54354;44.724;11.284;2023-11-19T01:27:57;13.75;;;8.00;;
67508;SDS011;54354;44.724;11.284;2023-11-19T01:30:24;14.18;;;8.75;;
67508;SDS011;54354;44.724;11.284;2023-11-19T01:32:50;13.15;;;8.27;;
67508;SDS011;54354;44.724;11.284;2023-11-19T01:35:15;12.20;;;7.55;;
67508;SDS011;54354;44.724;11.284;2023-11-19T01:37:41;11.00;;;7.78;;
67508;SDS011;54354;44.724;11.284;2023-11-19T01:40:06;16.10;;;7.90;;
67508;SDS011;54354;44.724;11.284;2023-11-19T01:42:36;10.57;;;7.07;;
67508;SDS011;54354;44.724;11.284;2023-11-19T01:45:03;13.25;;;7.53;;
67508;SDS011;54354;44.724;11.284;2023-11-19T01:47:32;12.90;;;7.40;;
67508;SDS011;54354;44.724;11.284;2023-11-19T01:49:58;10.98;;;7.32;;
67508;SDS011;54354;44.724;11.284;2023-11-19T01:52:25;13.23;;;7.65;;
67508;SDS011;54354;44.724;11.284;2023-11-19T01:54:51;15.10;;;8.90;;
67508;SDS011;54354;44.724;11.284;2023-11-19T01:57:18;40.03;;;17.98;;
67508;SDS011;54354;44.724;11.284;2023-11-19T01:59:46;22.10;;;11.05;;
67508;SDS011;54354;44.724;11.284;2023-11-19T02:02:12;13.25;;;8.43;;
67508;SDS011;54354;44.724;11.284;2023-11-19T02:04:38;14.73;;;8.48;;
67508;SDS011;54354;44.724;11.284;2023-11-19T02:07:03;15.35;;;7.85;;
67508;SDS011;54354;44.724;11.284;2023-11-19T02:09:29;15.15;;;7.90;;
67508;SDS011;54354;44.724;11.284;2023-11-19T02:11:55;15.40;;;8.27;;
67508;SDS011;54354;44.724;11.284;2023-11-19T02:14:25;13.00;;;7.63;;
67508;SDS011;54354;44.724;11.284;2023-11-19T02:16:52;11.88;;;7.93;;
67508;SDS011;54354;44.724;11.284;2023-11-19T02:19:20;12.02;;;7.57;;
67508;SDS011;54354;44.724;11.284;2023-11-19T02:21:46;13.32;;;7.35;;
67508;SDS011;54354;44.724;11.284;2023-11-19T02:24:12;12.00;;;7.68;;
67508;SDS011;54354;44.724;11.284;2023-11-19T02:26:43;11.82;;;7.65;;
67508;SDS011;54354;44.724;11.284;2023-11-19T02:29:15;12.10;;;7.28;;
67508;SDS011;54354;44.724;11.284;2023-11-19T02:31:41;14.38;;;7.80;;
67508;SDS011;54354;44.724;11.284;2023-11-19T02:34:06;15.02;;;8.82;;
67508;SDS011;54354;44.724;11.284;2023-11-19T02:36:32;15.48;;;9.70;;
67508;SDS011;54354;44.724;11.284;2023-11-19T02:38:58;16.38;;;9.40;;
67508;SDS011;54354;44.724;11.284;2023-11-19T02:41:24;16.05;;;9.52;;
67508;SDS011;54354;44.724;11.284;2023-11-19T02:43:49;17.08;;;9.98;;
67508;SDS011;54354;44.724;11.284;2023-11-19T02:46:15;21.17;;;11.80;;
67508;SDS011;54354;44.724;11.284;2023-11-19T02:48:42;24.98;;;12.60;;
67508;SDS011;54354;44.724;11.284;2023-11-19T02:51:09;31.55;;;14.18;;
67508;SDS011;54354;44.724;11.284;2023-11-19T02:53:35;23.48;;;12.70;;
67508;SDS011;54354;44.724;11.284;2023-11-19T02:56:02;20.75;;;12.18;;
67508;SDS011;54354;44.724;11.284;2023-11-19T02:58:42;22.70;;;13.05;;
67508;SDS011;54354;44.724;11.284;2023-11-19T03:01:10;22.08;;;13.05;;
67508;SDS011;54354;44.724;11.284;2023-11-19T03:03:44;36.47;;;17.55;;
67508;SDS011;54354;44.724;11.284;2023-11-19T03:06:14;34.92;;;19.30;;
67508;SDS011;54354;44.724;11.284;2023-11-19T03:08:40;31.75;;;17.88;;
67508;SDS011;54354;44.724;11.284;2023-11-19T03:11:05;19.77;;;12.13;;
67508;SDS011;54354;44.724;11.284;2023-11-19T03:13:31;13.48;;;8.93;;
67508;SDS011;54354;44.724;11.284;2023-11-19T03:15:56;12.00;;;8.40;;
67508;SDS011;54354;44.724;11.284;2023-11-19T03:18:22;13.00;;;8.88;;
67508;SDS011;54354;44.724;11.284;2023-11-19T03:20:47;11.25;;;7.55;;
67508;SDS011;54354;44.724;11.284;2023-11-19T03:23:13;9.80;;;7.72;;
67508;SDS011;54354;44.724;11.284;2023-11-19T03:25:38;13.88;;;7.80;;
67508;SDS011;54354;44.724;11.284;2023-11-19T03:28:04;11.20;;;7.82;;
67508;SDS011;54354;44.724;11.284;2023-11-19T03:30:30;11.05;;;8.45;;
67508;SDS011;54354;44.724;11.284;2023-11-19T03:32:56;12.77;;;8.65;;
67508;SDS011;54354;44.724;11.284;2023-11-19T03:35:22;15.73;;;10.82;;
67508;SDS011;54354;44.724;11.284;2023-11-19T03:37:49;16.25;;;10.27;;
67508;SDS011;54354;44.724;11.284;2023-11-19T03:40:16;12.32;;;8.25;;
67508;SDS011;54354;44.724;11.284;2023-11-19T03:42:41;10.80;;;8.25;;
67508;SDS011;54354;44.724;11.284;2023-11-19T03:45:07;13.60;;;8.07;;
67508;SDS011;54354;44.724;11.284;2023-11-19T03:47:36;12.70;;;8.85;;
67508;SDS011;54354;44.724;11.284;2023-11-19T03:50:02;13.85;;;8.98;;
67508;SDS011;54354;44.724;11.284;2023-11-19T03:52:28;14.50;;;8.73;;
67508;SDS011;54354;44.724;11.284;2023-11-19T03:54:54;13.70;;;8.70;;
67508;SDS011;54354;44.724;11.284;2023-11-19T03:57:21;12.40;;;8.40;;
67508;SDS011;54354;44.724;11.284;2023-11-19T03:59:47;11.40;;;8.25;;
67508;SDS011;54354;44.724;11.284;2023-11-19T04:02:12;13.60;;;8.20;;
67508;SDS011;54354;44.724;11.284;2023-11-19T04:04:38;12.45;;;7.72;;
67508;SDS011;54354;44.724;11.284;2023-11-19T04:07:04;10.45;;;7.80;;
67508;SDS011;54354;44.724;11.284;2023-11-19T04:09:30;12.27;;;7.53;;
67508;SDS011;54354;44.724;11.284;2023-11-19T04:11:56;10.32;;;7.28;;
67508;SDS011;54354;44.724;11.284;2023-11-19T04:14:22;11.10;;;7.65;;
67508;SDS011;54354;44.724;11.284;2023-11-19T04:16:47;11.23;;;7.10;;
67508;SDS011;54354;44.724;11.284;2023-11-19T04:19:13;8.40;;;6.93;;
67508;SDS011;54354;44.724;11.284;2023-11-19T04:21:41;9.50;;;7.25;;
67508;SDS011;54354;44.724;11.284;2023-11-19T04:24:07;9.23;;;7.28;;
67508;SDS011;54354;44.724;11.284;2023-11-19T04:26:34;15.50;;;7.63;;
67508;SDS011;54354;44.724;11.284;2023-11-19T04:28:59;11.95;;;7.32;;
67508;SDS011;54354;44.724;11.284;2023-11-19T04:31:29;10.23;;;7.22;;
67508;SDS011;54354;44.724;11.284;2023-11-19T04:33:56;12.63;;;7.03;;
67508;SDS011;54354;44.724;11.284;2023-11-19T04:36:22;11.65;;;7.82;;
67508;SDS011;54354;44.724;11.284;2023-11-19T04:38:49;10.50;;;7.30;;
67508;SDS011;54354;44.724;11.284;2023-11-19T04:41:15;11.18;;;7.25;;
67508;SDS011;54354;44.724;11.284;2023-11-19T04:43:41;10.45;;;7.47;;
67508;SDS011;54354;44.724;11.284;2023-11-19T04:46:06;10.20;;;7.25;;
67508;SDS011;54354;44.724;11.284;2023-11-19T04:48:32;12.48;;;8.82;;
67508;SDS011;54354;44.724;11.284;2023-11-19T04:50:57;11.05;;;8.00;;
67508;SDS011;54354;44.724;11.284;2023-11-19T04:53:23;9.73;;;7.68;;
67508;SDS011;54354;44.724;11.284;2023-11-19T04:55:48;9.73;;;7.28;;
67508;SDS011;54354;44.724;11.284;2023-11-19T04:58:14;10.13;;;7.40;;
67508;SDS011;54354;44.724;11.284;2023-11-19T05:00:39;10.23;;;7.07;;
67508;SDS011;54354;44.724;11.284;2023-11-19T05:03:05;11.70;;;7.60;;
67508;SDS011;54354;44.724;11.284;2023-11-19T05:05:31;9.65;;;6.95;;
67508;SDS011;54354;44.724;11.284;2023-11-19T05:07:57;12.30;;;7.40;;
67508;SDS011;54354;44.724;11.284;2023-11-19T05:10:22;11.70;;;7.15;;
67508;SDS011;54354;44.724;11.284;2023-11-19T05:12:49;8.43;;;6.43;;
67508;SDS011;54354;44.724;11.284;2023-11-19T05:15:15;13.10;;;7.78;;
67508;SDS011;54354;44.724;11.284;2023-11-19T05:17:40;11.82;;;7.90;;
67508;SDS011;54354;44.724;11.284;2023-11-19T05:20:06;9.82;;;7.25;;
67508;SDS011;54354;44.724;11.284;2023-11-19T05:22:41;10.60;;;7.35;;
67508;SDS011;54354;44.724;11.284;2023-11-19T05:25:08;12.37;;;8.23;;
67508;SDS011;54354;44.724;11.284;2023-11-19T05:27:34;23.95;;;12.85;;
67508;SDS011;54354;44.724;11.284;2023-11-19T05:30:01;10.93;;;8.35;;
67508;SDS011;54354;44.724;11.284;2023-11-19T05:32:27;13.18;;;9.43;;
67508;SDS011;54354;44.724;11.284;2023-11-19T05:34:52;12.18;;;8.63;;
67508;SDS011;54354;44.724;11.284;2023-11-19T05:37:18;13.20;;;8.38;;
67508;SDS011;54354;44.724;11.284;2023-11-19T05:39:44;10.68;;;7.10;;
67508;SDS011;54354;44.724;11.284;2023-11-19T05:42:10;10.45;;;7.85;;
67508;SDS011;54354;44.724;11.284;2023-11-19T05:44:36;12.65;;;8.18;;
67508;SDS011;54354;44.724;11.284;2023-11-19T05:47:03;12.63;;;7.90;;
67508;SDS011;54354;44.724;11.284;2023-11-19T05:49:29;11.70;;;7.70;;
67508;SDS011;54354;44.724;11.284;2023-11-19T05:51:54;11.20;;;7.10;;
67508;SDS011;54354;44.724;11.284;2023-11-19T05:54:21;12.68;;;8.63;;
67508;SDS011;54354;44.724;11.284;2023-11-19T05:56:47;10.73;;;6.90;;
67508;SDS011;54354;44.724;11.284;2023-11-19T05:59:14;14.82;;;8.95;;
67508;SDS011;54354;44.724;11.284;2023-11-19T06:01:43;16.08;;;10.85;;
67508;SDS011;54354;44.724;11.284;2023-11-19T06:04:09;14.80;;;9.57;;
67508;SDS011;54354;44.724;11.284;2023-11-19T06:06:35;13.80;;;8.82;;
67508;SDS011;54354;44.724;11.284;2023-11-19T06:09:01;10.50;;;7.93;;
67508;SDS011;54354;44.724;11.284;2023-11-19T06:11:27;11.43;;;6.93;;
67508;SDS011;54354;44.724;11.284;2023-11-19T06:13:53;9.98;;;7.28;;
67508;SDS011;54354;44.724;11.284;2023-11-19T06:16:20;9.30;;;6.70;;
67508;SDS011;54354;44.724;11.284;2023-11-19T06:18:46;9.70;;;7.38;;
67508;SDS011;54354;44.724;11.284;2023-11-19T06:21:12;12.05;;;7.80;;
67508;SDS011;54354;44.724;11.284;2023-11-19T06:23:38;10.82;;;7.40;;
67508;SDS011;54354;44.724;11.284;2023-11-19T06:26:03;9.98;;;7.57;;
67508;SDS011;54354;44.724;11.284;2023-11-19T06:28:30;9.45;;;6.65;;
67508;SDS011;54354;44.724;11.284;2023-11-19T06:30:56;11.95;;;7.25;;
67508;SDS011;54354;44.724;11.284;2023-11-19T06:33:23;9.57;;;6.47;;
67508;SDS011;54354;44.724;11.284;2023-11-19T06:35:49;9.55;;;7.45;;
67508;SDS011;54354;44.724;11.284;2023-11-19T06:38:15;12.80;;;8.30;;
67508;SDS011;54354;44.724;11.284;2023-11-19T06:40:40;11.40;;;7.70;;
67508;SDS011;54354;44.724;11.284;2023-11-19T06:43:06;9.90;;;7.10;;
67508;SDS011;54354;44.724;11.284;2023-11-19T06:45:33;11.80;;;8.13;;
67508;SDS011;54354;44.724;11.284;2023-11-19T06:48:02;12.65;;;8.55;;
67508;SDS011;54354;44.724;11.284;2023-11-19T06:50:30;13.10;;;9.18;;
67508;SDS011;54354;44.724;11.284;2023-11-19T06:52:56;13.02;;;9.88;;
67508;SDS011;54354;44.724;11.284;2023-11-19T06:55:21;15.98;;;9.98;;
67508;SDS011;54354;44.724;11.284;2023-11-19T06:57:47;14.48;;;10.50;;
67508;SDS011;54354;44.724;11.284;2023-11-19T07:00:12;13.55;;;9.30;;
67508;SDS011;54354;44.724;11.284;2023-11-19T07:02:38;12.70;;;8.38;;
67508;SDS011;54354;44.724;11.284;2023-11-19T07:05:04;11.13;;;8.02;;
67508;SDS011;54354;44.724;11.284;2023-11-19T07:07:31;12.70;;;7.57;;
67508;SDS011;54354;44.724;11.284;2023-11-19T07:09:58;15.02;;;8.80;;
67508;SDS011;54354;44.724;11.284;2023-11-19T07:12:23;22.48;;;12.15;;
67508;SDS011;54354;44.724;11.284;2023-11-19T07:14:52;18.95;;;11.63;;
67508;SDS011;54354;44.724;11.284;2023-11-19T07:17:18;19.25;;;13.15;;
67508;SDS011;54354;44.724;11.284;2023-11-19T07:19:45;18.35;;;11.27;;
67508;SDS011;54354;44.724;11.284;2023-11-19T07:22:11;16.52;;;11.43;;
67508;SDS011;54354;44.724;11.284;2023-11-19T07:24:39;13.88;;;8.35;;
67508;SDS011;54354;44.724;11.284;2023-11-19T07:27:05;9.82;;;6.78;;
67508;SDS011;54354;44.724;11.284;2023-11-19T07:29:34;11.30;;;6.90;;
67508;SDS011;54354;44.724;11.284;2023-11-19T07:32:00;8.50;;;5.95;;
67508;SDS011;54354;44.724;11.284;2023-11-19T07:34:27;9.45;;;6.43;;
67508;SDS011;54354;44.724;11.284;2023-11-19T07:36:54;8.02;;;6.65;;
67508;SDS011;54354;44.724;11.284;2023-11-19T07:39:22;10.10;;;6.13;;
67508;SDS011;54354;44.724;11.284;2023-11-19T07:41:48;8.85;;;6.13;;
67508;SDS011;54354;44.724;11.284;2023-11-19T07:44:14;10.63;;;6.05;;
67508;SDS011;54354;44.724;11.284;2023-11-19T07:46:40;7.57;;;5.13;;
67508;SDS011;54354;44.724;11.284;2023-11-19T07:49:07;9.13;;;5.82;;
67508;SDS011;54354;44.724;11.284;2023-11-19T07:51:33;9.75;;;6.70;;
67508;SDS011;54354;44.724;11.284;2023-11-19T07:53:58;7.53;;;6.03;;
67508;SDS011;54354;44.724;11.284;2023-11-19T07:56:24;8.75;;;5.30;;
67508;SDS011;54354;44.724;11.284;2023-11-19T07:58:50;5.90;;;5.30;;
67508;SDS011;54354;44.724;11.284;2023-11-19T08:01:15;5.20;;;4.40;;
67508;SDS011;54354;44.724;11.284;2023-11-19T08:03:41;6.95;;;4.82;;
67508;SDS011;54354;44.724;11.284;2023-11-19T08:06:06;7.32;;;4.82;;
67508;SDS011;54354;44.724;11.284;2023-11-19T08:08:32;8.63;;;4.90;;
67508;SDS011;54354;44.724;11.284;2023-11-19T08:11:00;5.15;;;4.57;;
67508;SDS011;54354;44.724;11.284;2023-11-19T08:13:25;6.05;;;5.45;;
67508;SDS011;54354;44.724;11.284;2023-11-19T08:15:51;8.85;;;5.20;;
67508;SDS011;54354;44.724;11.284;2023-11-19T08:18:17;8.45;;;4.60;;
67508;SDS011;54354;44.724;11.284;2023-11-19T08:20:43;11.80;;;5.60;;
67508;SDS011;54354;44.724;11.284;2023-11-19T08:23:10;5.93;;;4.68;;
67508;SDS011;54354;44.724;11.284;2023-11-19T08:25:35;6.32;;;5.10;;
67508;SDS011;54354;44.724;11.284;2023-11-19T08:28:01;8.35;;;4.68;;
67508;SDS011;54354;44.724;11.284;2023-11-19T08:30:28;7.70;;;4.70;;
67508;SDS011;54354;44.724;11.284;2023-11-19T08:32:55;7.60;;;4.40;;
67508;SDS011;54354;44.724;11.284;2023-11-19T08:35:21;6.38;;;4.63;;
67508;SDS011;54354;44.724;11.284;2023-11-19T08:37:47;6.47;;;4.50;;
67508;SDS011;54354;44.724;11.284;2023-11-19T08:40:12;7.32;;;5.10;;
67508;SDS011;54354;44.724;11.284;2023-11-19T08:42:40;7.32;;;4.88;;
67508;SDS011;54354;44.724;11.284;2023-11-19T08:45:06;7.78;;;4.63;;
67508;SDS011;54354;44.724;11.284;2023-11-19T08:47:35;4.68;;;4.22;;
67508;SDS011;54354;44.724;11.284;2023-11-19T08:50:01;4.95;;;4.00;;
67508;SDS011;54354;44.724;11.284;2023-11-19T08:52:29;6.32;;;3.90;;
67508;SDS011;54354;44.724;11.284;2023-11-19T08:54:55;6.18;;;4.22;;
67508;SDS011;54354;44.724;11.284;2023-11-19T08:57:21;4.28;;;3.88;;
67508;SDS011;54354;44.724;11.284;2023-11-19T08:59:46;8.10;;;4.47;;
67508;SDS011;54354;44.724;11.284;2023-11-19T09:02:12;6.88;;;4.70;;
67508;SDS011;54354;44.724;11.284;2023-11-19T09:04:38;5.10;;;4.00;;
67508;SDS011;54354;44.724;11.284;2023-11-19T09:07:03;8.05;;;4.82;;
67508;SDS011;54354;44.724;11.284;2023-11-19T09:09:30;6.40;;;4.55;;
67508;SDS011;54354;44.724;11.284;2023-11-19T09:12:01;7.43;;;4.88;;
67508;SDS011;54354;44.724;11.284;2023-11-19T09:14:26;8.07;;;5.13;;
67508;SDS011;54354;44.724;11.284;2023-11-19T09:16:52;5.82;;;5.22;;
67508;SDS011;54354;44.724;11.284;2023-11-19T09:19:18;5.80;;;5.28;;
67508;SDS011;54354;44.724;11.284;2023-11-19T09:21:43;5.35;;;4.70;;
67508;SDS011;54354;44.724;11.284;2023-11-19T09:24:09;5.88;;;5.05;;
67508;SDS011;54354;44.724;11.284;2023-11-19T09:26:35;8.98;;;4.93;;
67508;SDS011;54354;44.724;11.284;2023-11-19T09:29:01;5.32;;;4.82;;
67508;SDS011;54354;44.724;11.284;2023-11-19T09:31:27;6.18;;;4.82;;
67508;SDS011;54354;44.724;11.284;2023-11-19T09:33:52;5.93;;;5.03;;
67508;SDS011;54354;44.724;11.284;2023-11-19T09:36:18;6.90;;;4.50;;
67508;SDS011;54354;44.724;11.284;2023-11-19T09:38:44;8.00;;;4.57;;
67508;SDS011;54354;44.724;11.284;2023-11-19T09:41:10;6.45;;;4.72;;
67508;SDS011;54354;44.724;11.284;2023-11-19T09:43:41;5.50;;;4.63;;
67508;SDS011;54354;44.724;11.284;2023-11-19T09:46:11;7.13;;;4.70;;
67508;SDS011;54354;44.724;11.284;2023-11-19T09:48:39;8.35;;;4.07;;
67508;SDS011;54354;44.724;11.284;2023-11-19T09:51:10;8.13;;;4.53;;
67508;SDS011;54354;44.724;11.284;2023-11-19T09:53:36;6.13;;;4.30;;
67508;SDS011;54354;44.724;11.284;2023-11-19T09:56:03;4.60;;;4.13;;
67508;SDS011;54354;44.724;11.284;2023-11-19T10:00:59;6.50;;;4.20;;
67508;SDS011;54354;44.724;11.284;2023-11-19T10:03:32;4.57;;;4.18;;
67508;SDS011;54354;44.724;11.284;2023-11-19T10:06:00;5.80;;;4.68;;
67508;SDS011;54354;44.724;11.284;2023-11-19T10:08:26;4.38;;;3.97;;
67508;SDS011;54354;44.724;11.284;2023-11-19T10:10:51;4.40;;;3.95;;
67508;SDS011;54354;44.724;11.284;2023-11-19T10:13:17;4.75;;;4.00;;
67508;SDS011;54354;44.724;11.284;2023-11-19T10:15:43;6.15;;;3.95;;
67508;SDS011;54354;44.724;11.284;2023-11-19T10:18:09;7.05;;;3.60;;
67508;SDS011;54354;44.724;11.284;2023-11-19T10:20:41;5.40;;;3.58;;
67508;SDS011;54354;44.724;11.284;2023-11-19T10:23:08;5.90;;;3.60;;
67508;SDS011;54354;44.724;11.284;2023-11-19T10:25:33;4.07;;;3.40;;
67508;SDS011;54354;44.724;11.284;2023-11-19T10:27:59;5.50;;;4.97;;
67508;SDS011;54354;44.724;11.284;2023-11-19T10:30:29;8.35;;;4.50;;
67508;SDS011;54354;44.724;11.284;2023-11-19T10:33:06;5.63;;;4.30;;
67508;SDS011;54354;44.724;11.284;2023-11-19T10:35:32;5.13;;;4.43;;
67508;SDS011;54354;44.724;11.284;2023-11-19T10:38:01;4.73;;;4.10;;
67508;SDS011;54354;44.724;11.284;2023-11-19T10:40:39;5.25;;;4.70;;
67508;SDS011;54354;44.724;11.284;2023-11-19T10:43:05;4.80;;;4.40;;
67508;SDS011;54354;44.724;11.284;2023-11-19T10:45:33;4.32;;;3.90;;
67508;SDS011;54354;44.724;11.284;2023-11-19T10:47:59;10.70;;;4.03;;
67508;SDS011;54354;44.724;11.284;2023-11-19T10:50:25;4.72;;;4.30;;
67508;SDS011;54354;44.724;11.284;2023-11-19T10:52:55;10.90;;;4.45;;
67508;SDS011;54354;44.724;11.284;2023-11-19T10:55:28;5.03;;;4.15;;
67508;SDS011;54354;44.724;11.284;2023-11-19T10:58:03;5.32;;;4.82;;
67508;SDS011;54354;44.724;11.284;2023-11-19T11:03:20;4.97;;;4.47;;
67508;SDS011;54354;44.724;11.284;2023-11-19T11:05:50;5.47;;;4.97;;
67508;SDS011;54354;44.724;11.284;2023-11-19T11:08:17;6.13;;;4.20;;
67508;SDS011;54354;44.724;11.284;2023-11-19T11:10:54;12.88;;;9.60;;
67508;SDS011;54354;44.724;11.284;2023-11-19T11:13:22;6.80;;;6.18;;
67508;SDS011;54354;44.724;11.284;2023-11-19T11:15:51;5.93;;;5.38;;
67508;SDS011;54354;44.724;11.284;2023-11-19T11:18:19;5.85;;;5.28;;
67508;SDS011;54354;44.724;11.284;2023-11-19T11:20:45;7.35;;;5.18;;
67508;SDS011;54354;44.724;11.284;2023-11-19T11:32:04;11.15;;;7.45;;
67508;SDS011;54354;44.724;11.284;2023-11-19T11:37:15;7.07;;;5.70;;
67508;SDS011;54354;44.724;11.284;2023-11-19T11:39:46;7.40;;;5.25;;
67508;SDS011;54354;44.724;11.284;2023-11-19T11:42:36;7.82;;;5.57;;
67508;SDS011;54354;44.724;11.284;2023-11-19T11:53:09;5.43;;;4.82;;
67508;SDS011;54354;44.724;11.284;2023-11-19T11:55:35;6.53;;;4.82;;
67508;SDS011;54354;44.724;11.284;2023-11-19T11:58:03;7.00;;;5.32;;
67508;SDS011;54354;44.724;11.284;2023-11-19T12:00:30;6.82;;;5.07;;
67508;SDS011;54354;44.724;11.284;2023-11-19T12:03:00;6.40;;;5.53;;
67508;SDS011;54354;44.724;11.284;2023-11-19T12:05:26;6.07;;;5.43;;
67508;SDS011;54354;44.724;11.284;2023-11-19T12:08:05;7.47;;;5.25;;
67508;SDS011;54354;44.724;11.284;2023-11-19T12:10:36;6.73;;;5.27;;
67508;SDS011;54354;44.724;11.284;2023-11-19T12:13:04;9.23;;;5.40;;
67508;SDS011;54354;44.724;11.284;2023-11-19T12:15:32;10.15;;;5.63;;
67508;SDS011;54354;44.724;11.284;2023-11-19T12:17:58;9.10;;;5.45;;
67508;SDS011;54354;44.724;11.284;2023-11-19T12:20:24;5.95;;;5.35;;
67508;SDS011;54354;44.724;11.284;2023-11-19T12:22:51;8.48;;;5.18;;
67508;SDS011;54354;44.724;11.284;2023-11-19T12:25:17;5.40;;;4.90;;
67508;SDS011;54354;44.724;11.284;2023-11-19T12:28:01;7.55;;;5.25;;
67508;SDS011;54354;44.724;11.284;2023-11-19T12:30:29;7.45;;;5.05;;
67508;SDS011;54354;44.724;11.284;2023-11-19T12:32:55;7.35;;;4.90;;
67508;SDS011;54354;44.724;11.284;2023-11-19T12:35:20;6.18;;;5.13;;
67508;SDS011;54354;44.724;11.284;2023-11-19T12:37:47;7.35;;;4.97;;
67508;SDS011;54354;44.724;11.284;2023-11-19T12:40:18;5.50;;;5.00;;
67508;SDS011;54354;44.724;11.284;2023-11-19T12:42:45;5.70;;;5.10;;
67508;SDS011;54354;44.724;11.284;2023-11-19T12:45:11;7.80;;;5.00;;
67508;SDS011;54354;44.724;11.284;2023-11-19T12:47:39;7.60;;;5.82;;
67508;SDS011;54354;44.724;11.284;2023-11-19T12:50:08;7.40;;;6.70;;
67508;SDS011;54354;44.724;11.284;2023-11-19T12:52:34;11.15;;;8.90;;
67508;SDS011;54354;44.724;11.284;2023-11-19T12:55:01;11.23;;;9.45;;
67508;SDS011;54354;44.724;11.284;2023-11-19T12:57:37;12.90;;;9.35;;
67508;SDS011;54354;44.724;11.284;2023-11-19T13:00:03;10.60;;;8.65;;
67508;SDS011;54354;44.724;11.284;2023-11-19T13:02:46;8.75;;;5.97;;
67508;SDS011;54354;44.724;11.284;2023-11-19T13:07:49;11.02;;;6.88;;
67508;SDS011;54354;44.724;11.284;2023-11-19T13:10:14;9.85;;;5.97;;
67508;SDS011;54354;44.724;11.284;2023-11-19T13:12:40;9.07;;;5.88;;
67508;SDS011;54354;44.724;11.284;2023-11-19T13:15:06;7.70;;;6.15;;
67508;SDS011;54354;44.724;11.284;2023-11-19T13:17:32;8.82;;;6.43;;
67508;SDS011;54354;44.724;11.284;2023-11-19T13:19:58;9.73;;;5.05;;
67508;SDS011;54354;44.724;11.284;2023-11-19T13:22:23;6.60;;;4.72;;
67508;SDS011;54354;44.724;11.284;2023-11-19T13:24:49;6.63;;;5.03;;
67508;SDS011;54354;44.724;11.284;2023-11-19T13:27:14;6.82;;;4.63;;
67508;SDS011;54354;44.724;11.284;2023-11-19T13:29:40;7.43;;;5.20;;
67508;SDS011;54354;44.724;11.284;2023-11-19T13:32:05;6.15;;;5.00;;
67508;SDS011;54354;44.724;11.284;2023-11-19T13:34:31;5.68;;;5.03;;
67508;SDS011;54354;44.724;11.284;2023-11-19T13:36:56;5.72;;;5.10;;
67508;SDS011;54354;44.724;11.284;2023-11-19T13:39:22;6.57;;;5.15;;
67508;SDS011;54354;44.724;11.284;2023-11-19T13:41:48;7.43;;;4.95;;
67508;SDS011;54354;44.724;11.284;2023-11-19T13:44:13;5.57;;;4.43;;
67508;SDS011;54354;44.724;11.284;2023-11-19T13:46:39;5.65;;;5.15;;
67508;SDS011;54354;44.724;11.284;2023-11-19T13:49:04;7.55;;;5.18;;
67508;SDS011;54354;44.724;11.284;2023-11-19T13:51:30;8.73;;;5.10;;
67508;SDS011;54354;44.724;11.284;2023-11-19T13:53:55;10.43;;;5.70;;
67508;SDS011;54354;44.724;11.284;2023-11-19T13:56:21;8.88;;;5.65;;
67508;SDS011;54354;44.724;11.284;2023-11-19T13:58:46;9.45;;;5.55;;
67508;SDS011;54354;44.724;11.284;2023-11-19T14:01:12;7.25;;;5.30;;
67508;SDS011;54354;44.724;11.284;2023-11-19T14:03:40;7.47;;;4.70;;
67508;SDS011;54354;44.724;11.284;2023-11-19T14:06:06;6.85;;;5.55;;
67508;SDS011;54354;44.724;11.284;2023-11-19T14:08:33;8.23;;;5.30;;
67508;SDS011;54354;44.724;11.284;2023-11-19T14:10:58;11.02;;;5.10;;
67508;SDS011;54354;44.724;11.284;2023-11-19T14:13:24;8.52;;;5.25;;
67508;SDS011;54354;44.724;11.284;2023-11-19T14:15:49;6.93;;;5.40;;
67508;SDS011;54354;44.724;11.284;2023-11-19T14:18:16;7.85;;;5.47;;
67508;SDS011;54354;44.724;11.284;2023-11-19T14:20:42;7.65;;;5.85;;
67508;SDS011;54354;44.724;11.284;2023-11-19T14:23:07;7.28;;;5.00;;
67508;SDS011;54354;44.724;11.284;2023-11-19T14:25:34;8.80;;;5.30;;
67508;SDS011;54354;44.724;11.284;2023-11-19T14:27:59;6.70;;;4.78;;
67508;SDS011;54354;44.724;11.284;2023-11-19T14:30:25;6.05;;;4.80;;
67508;SDS011;54354;44.724;11.284;2023-11-19T14:32:50;7.30;;;4.68;;
67508;SDS011;54354;44.724;11.284;2023-11-19T14:35:16;6.15;;;4.53;;
67508;SDS011;54354;44.724;11.284;2023-11-19T14:37:41;9.05;;;5.18;;
67508;SDS011;54354;44.724;11.284;2023-11-19T14:40:07;7.53;;;5.47;;
67508;SDS011;54354;44.724;11.284;2023-11-19T14:42:36;6.78;;;4.88;;
67508;SDS011;54354;44.724;11.284;2023-11-19T14:45:02;11.07;;;5.38;;
67508;SDS011;54354;44.724;11.284;2023-11-19T14:47:28;7.30;;;5.40;;
67508;SDS011;54354;44.724;11.284;2023-11-19T14:49:54;10.10;;;5.55;;